Airfield :
LOGIN :

Register | Disclaimer

   EN    FR    IT 

 










Legend :    VFR   Marginal VFR   IFR   Intensive IFR   Very Intensive IFR
Visi :
Ceiling :
>= 8 km
>= 3000ft
5 to 8 km
1000 to 3000 ft
1500m to 5 km
500 to 1000 ft
800 to 1500m
200 to 500 ft
< 800m
< 200 ft
Symbols :   Thunderstorms  Fog  Heavy snow  Heavy precipitations  Wind > 20 kt
SIGMETs :     Misc.  Thunderstorms  Icing  Turbulence  Mountain Waves  Volcanic Ashes







- Airport Elevation : 26 ft
- IATA code : GLA
- Download approach charts


EGPF - Glasgow

CURRENT METAR :
  • 220350Z AUTO 25010KT 9999 FEW029 05/03 Q1000

EXPIRED METARs :
  • 220320Z AUTO 26012KT 9999 FEW032/// //////TCU 06/03 Q1000
  • 220250Z AUTO 24017KT 8000 -RA SCT025 BKN030 BKN037 06/03 Q1000
  • 220220Z AUTO 24015KT 9999 FEW029 BKN034 BKN046 05/03 Q0999
  • 220150Z AUTO 24014KT 9999 SCT028 BKN034 05/03 Q0999
  • 220120Z AUTO 23013KT 9999 FEW025 04/02 Q0999

TAF TAF EGPF
Valid from the 22 at 00:00 until the 23 at 00:00 UTC


212300Z 2200/2224 25009KT 9999 SCT030
PROB40
TEMPO 2200/2215 26015G25KT 7000 SHRA
PROB30
TEMPO 2200/2205 BKN012
ATIS : +44 141 887 7449
No reported NOTAMs for that airfield.
1 SIGMET reported for the Scottish FIR (EGPX) :
 
Severe mountain waves
EGPX SIGMET 01 VALID 220230/220630 EGRR
EGPX SCOTTISH FIR SEV MTW FCST WI N5500 E00025 - N5500 W00348 - N5602 W00458 - N5817 W00628 - N5851 W00236 - N5500 E00025 FL040/270 STNR NC=



MET'MAP, your aeronautical weather chart ! - Copyright ORBIFLY December 2007 - Disclaimer

ORBIFLY MET'MAP TEAM :

Programming & Development : Alexandra Zaïnal
Concept & Development : Baudouin d'Aumeries
Co-Development & Prog : Marc-Olivier Méhu
Technical & hardware support : Manuel Goepfert

Contact : metmap@orbifly.com




SOURCES & CREDITS :

   NOAA